NCAR-RAP Real-Time Weather Data

Output produced by METARs form (06 May 2021  16:27 UTC)
found at http://weather.rap.ucar.edu/surface/
 
KLAR 061553Z AUTO 17004KT 10SM CLR 10/M02 A3035 RMK AO2 SLP231 T01001022
KLAR 061453Z AUTO 16004KT 10SM CLR 07/M02 A3035 RMK AO2 SLP233 T00721022 50003
KLAR 061353Z AUTO 16006KT 10SM CLR 04/00 A3035 RMK AO2 SLP242 T00390000
KLAR 061253Z AUTO 19008KT 10SM CLR 00/M01 A3035 RMK AO2 SLP244 T00001011
KLAR 061153Z AUTO 19010KT 10SM CLR M01/M03 A3034 RMK AO2 SLP240 70003 T10111028 10017 21017 53000
KLAR 061053Z AUTO 18010KT 10SM CLR M01/M03 A3034 RMK AO2 SLP239 T10111028
KLAR 060953Z AUTO 16010KT 10SM CLR M01/M02 A3034 RMK AO2 SLP235 T10061022
KLAR 060853Z AUTO 14008KT 10SM CLR M01/M02 A3034 RMK AO2 SLP243 T10061022 50000
KLAR 060753Z AUTO 00000KT 10SM CLR M01/M03 A3035 RMK AO2 SLP254 T10111028
KLAR 060653Z AUTO 22004KT 10SM CLR M02/M03 A3035 RMK AO2 SLP267 T10171028 401171017
KLAR 060553Z AUTO 14008KT 10SM CLR 02/M01 A3034 RMK AO2 SLP259 T00171011 10111 20011 51016
KLAR 060453Z AUTO 13005KT 10SM CLR 02/M01 A3033 RMK AO2 SLP261 T00221011
KLAR 060353Z AUTO 08009KT 10SM CLR 03/M01 A3032 RMK AO2 SLP252 T00331011
KLAR 060253Z AUTO 35004KT 10SM CLR 06/M02 A3028 RMK AO2 SLP231 T00561017 53007